Fernando Pessoa — CSKQ — position and weather

sailwx.info

Track history (hours):
 
Tides and Currents Weather Stations Pressure Air Temp Water Temp Dewpoint Dewpoint Depression Visibility Wind Speed Wind Dir Waves Ship Positions

Fernando Pessoa

Last reported at 2017-Aug-17 20:21 UTC. Time now 2017-Aug-18 03:07 UTC.
Position N 38°39' W 009°05'.

Length 49 m.

MMSI: 263701470.

Date/timePositionNaut miles runAvg speedWind from/ knotsBaromVisibWave heightAir tempDewpointWater temp
2017-Aug-17 20:21N 38°39' W 009°05'2 6.1
2017-Aug-17 20:01N 38°40' W 009°07'0 0.2
2017-Aug-17 19:31N 38°40' W 009°07'2 4.5
2017-Aug-17 19:00N 38°39' W 009°05'2 3.7
2017-Aug-17 18:30N 38°40' W 009°07'1 1.6
2017-Aug-17 18:00N 38°40' W 009°06'3 6.6
2017-Aug-17 17:30N 38°42' W 009°08'4 8.4
2017-Aug-17 17:01N 38°39' W 009°05'4 7.8
2017-Aug-17 16:30N 38°42' W 009°08'2 4.2
2017-Aug-17 16:00N 38°40' W 009°07'0 0.7
2017-Aug-17 15:30N 38°40' W 009°07'2 4.9
2017-Aug-17 15:01N 38°39' W 009°05'0 0.0
2017-Aug-17 14:31N 38°39' W 009°05'3 6.2
2017-Aug-17 14:01N 38°41' W 009°08'2 4.2
2017-Aug-17 13:30N 38°40' W 009°06'2 5.0
2017-Aug-17 13:01N 38°42' W 009°08'3 5.7
2017-Aug-17 12:30N 38°39' W 009°06'1 1.2
2017-Aug-17 12:00N 38°39' W 009°05'0 0.0
2017-Aug-17 11:30N 38°39' W 009°05'0 0.0
2017-Aug-17 11:00N 38°39' W 009°05'0 0.0
2017-Aug-17 10:30N 38°39' W 009°05'0 0.0
2017-Aug-17 10:00N 38°39' W 009°05'4 7.3
2017-Aug-17 09:30N 38°42' W 009°08'3 6.5
2017-Aug-17 09:00N 38°39' W 009°05'1 1.1
2017-Aug-17 08:30N 38°39' W 009°05'4 7.5
2017-Aug-17 08:01N 38°42' W 009°08'2 4.3
2017-Aug-17 07:30N 38°40' W 009°07'2 3.5
2017-Aug-17 07:00N 38°39' W 009°05'4 8.1
2017-Aug-17 06:31N 38°42' W 009°08'4 8.3
2017-Aug-17 06:00N 38°39' W 009°05'4 7.3
2017-Aug-17 05:30N 38°42' W 009°08'3 6.7
2017-Aug-17 05:00N 38°39' W 009°05'3 6.5
2017-Aug-17 04:30N 38°42' W 009°08'4 6.9
2017-Aug-17 04:00N 38°39' W 009°05'0 0.0
2017-Aug-17 03:30N 38°39' W 009°05'0 0.0
2017-Aug-17 03:00N 38°39' W 009°05'0 0.0
2017-Aug-17 02:30N 38°39' W 009°05'0 0.0
2017-Aug-17 02:00N 38°39' W 009°05'0 0.0
2017-Aug-17 01:31N 38°39' W 009°05'4 8.3
2017-Aug-17 01:00N 38°42' W 009°08'4 8.3
2017-Aug-17 00:30N 38°39' W 009°05'4 8.3
2017-Aug-17 00:00N 38°42' W 009°08'4 8.4
2017-Aug-16 23:31N 38°39' W 009°05'4 8.3
2017-Aug-16 23:00N 38°42' W 009°08'4 8.3
2017-Aug-16 22:30N 38°39' W 009°05'3 6.5
2017-Aug-16 22:01N 38°41' W 009°08'3 5.3
2017-Aug-16 21:30N 38°39' W 009°06'3 5.5
2017-Aug-16 21:00N 38°41' W 009°08'3 5.3
2017-Aug-16 20:30N 38°39' W 009°06'1 1.6
2017-Aug-16 20:00N 38°39' W 009°05'0 0.0
2017-Aug-16 19:31N 38°39' W 009°05'4 8.4
2017-Aug-16 19:01N 38°42' W 009°08'4 8.3
2017-Aug-16 18:30N 38°39' W 009°05'4 7.2
2017-Aug-16 18:01N 38°42' W 009°08'2 4.2
2017-Aug-16 17:31N 38°40' W 009°07'1 1.8
2017-Aug-16 17:01N 38°39' W 009°06'3 6.9
2017-Aug-16 16:31N 38°42' W 009°08'4 8.3
2017-Aug-16 16:01N 38°39' W 009°05'4 8.3
2017-Aug-16 15:31N 38°42' W 009°08'4 8.3
2017-Aug-16 15:00N 38°39' W 009°05'3 6.8
2017-Aug-16 14:30N 38°41' W 009°08'3 5.3
2017-Aug-16 14:00N 38°39' W 009°06'3 5.5
2017-Aug-16 13:30N 38°41' W 009°08'3 5.2
2017-Aug-16 13:00N 38°39' W 009°06'3 5.1
2017-Aug-16 12:30N 38°41' W 009°08'3 5.3
2017-Aug-16 12:00N 38°39' W 009°06'4 7.0
2017-Aug-16 11:30N 38°42' W 009°08'4 7.1
2017-Aug-16 11:00N 38°39' W 009°06'3 5.8
2017-Aug-16 10:30N 38°42' W 009°08'3 5.5
2017-Aug-16 10:00N 38°39' W 009°06'1 1.6
2017-Aug-16 09:31N 38°39' W 009°05'0 0.0
2017-Aug-16 09:00N 38°39' W 009°05'3 5.3
2017-Aug-16 08:31N 38°40' W 009°08'3 5.3
2017-Aug-16 08:01N 38°39' W 009°05'4 8.3
2017-Aug-16 07:31N 38°42' W 009°08'4 8.0
2017-Aug-16 07:00N 38°39' W 009°05'2 3.3
2017-Aug-16 06:31N 38°40' W 009°07'2 3.4
2017-Aug-16 06:00N 38°39' W 009°05'0 0.0
2017-Aug-14 16:32N 38°39' W 009°05'0 0.0
2017-Aug-14 16:30N 38°39' W 009°05'0 0.0
2017-Aug-14 12:00N 38°39' W 009°05'3 7.2
2017-Aug-14 11:31N 38°42' W 009°08'3 5.8
2017-Aug-14 11:01N 38°39' W 009°06'3 5.4
2017-Aug-14 10:31N 38°41' W 009°08'3 5.4
2017-Aug-14 10:00N 38°39' W 009°06'1 1.3
2017-Aug-14 09:30N 38°39' W 009°05'0 0.0
2017-Aug-14 09:00N 38°39' W 009°05'3 5.3
2017-Aug-14 08:31N 38°41' W 009°08'3 5.4
2017-Aug-14 08:00N 38°39' W 009°05'4 8.3
2017-Aug-14 07:31N 38°42' W 009°08'4 8.3
2017-Aug-14 07:01N 38°39' W 009°05'2 4.3
2017-Aug-14 06:30N 38°40' W 009°07'2 4.6
2017-Aug-14 06:00N 38°39' W 009°05'0 0.0
2017-Aug-13 10:25N 38°39' W 009°05'3 8.3
2017-Aug-13 10:01N 38°41' W 009°08'3 5.8
2017-Aug-13 09:30N 38°39' W 009°06'3 6.7
2017-Aug-13 09:01N 38°42' W 009°08'3 6.8
2017-Aug-13 08:31N 38°39' W 009°05'3 6.3
2017-Aug-13 08:01N 38°42' W 009°08'3 5.9
2017-Aug-13 07:30N 38°39' W 009°06'3 5.8
2017-Aug-13 07:00N 38°42' W 009°08'3 5.5
2017-Aug-13 06:31N 38°39' W 009°06'0 0.1
2017-Aug-13 06:00N 38°39' W 009°06'1 2.1
2017-Aug-13 05:31N 38°40' W 009°07'1 2.1
2017-Aug-13 05:00N 38°39' W 009°06'2 4.3
2017-Aug-13 04:30N 38°41' W 009°08'3 6.0
2017-Aug-13 04:01N 38°39' W 009°05'0 0.0
2017-Aug-13 03:31N 38°39' W 009°05'0 0.0
2017-Aug-13 03:01N 38°39' W 009°05'0 0.0
2017-Aug-13 02:31N 38°39' W 009°05'0 0.0
2017-Aug-13 02:01N 38°39' W 009°05'0 0.0
2017-Aug-13 01:31N 38°39' W 009°05'4 8.3
2017-Aug-13 01:00N 38°42' W 009°08'4 8.3
2017-Aug-13 00:31N 38°39' W 009°05'4 8.3
2017-Aug-13 00:01N 38°42' W 009°08'4 8.3
2017-Aug-12 23:31N 38°39' W 009°05'4 8.3
2017-Aug-12 23:01N 38°42' W 009°08'4 8.3
2017-Aug-12 22:30N 38°39' W 009°05'3 6.6
2017-Aug-12 22:01N 38°41' W 009°08'3 5.2
2017-Aug-12 21:31N 38°39' W 009°06'3 5.3
2017-Aug-12 21:01N 38°41' W 009°08'3 5.5
2017-Aug-12 20:31N 38°39' W 009°06'3 5.2
2017-Aug-12 20:01N 38°41' W 009°08'2 4.5
2017-Aug-12 19:30N 38°40' W 009°06'1 2.0
2017-Aug-12 19:01N 38°39' W 009°05'3 6.6
2017-Aug-12 18:30N 38°41' W 009°08'3 5.3
2017-Aug-12 18:00N 38°39' W 009°06'3 5.9
2017-Aug-12 17:30N 38°42' W 009°08'3 5.9
2017-Aug-12 17:00N 38°39' W 009°06'3 5.3
2017-Aug-12 16:30N 38°41' W 009°08'2 4.7
2017-Aug-12 16:01N 38°40' W 009°06'2 4.7
2017-Aug-12 15:31N 38°41' W 009°08'3 5.7
2017-Aug-12 15:00N 38°39' W 009°05'3 6.0
2017-Aug-12 14:30N 38°41' W 009°08'3 6.7
2017-Aug-12 14:01N 38°39' W 009°05'0 0.0
2017-Aug-12 13:30N 38°39' W 009°05'0 0.0
2017-Aug-12 13:00N 38°39' W 009°05'0 0.0
2017-Aug-12 12:31N 38°39' W 009°05'3 6.4
2017-Aug-12 12:01N 38°41' W 009°08'3 5.4
2017-Aug-12 11:30N 38°39' W 009°05'3 6.5
2017-Aug-12 11:00N 38°42' W 009°08'3 6.2
2017-Aug-12 10:30N 38°39' W 009°06'3 6.0
2017-Aug-12 10:00N 38°42' W 009°08'3 6.0
2017-Aug-12 09:30N 38°39' W 009°06'3 6.1
2017-Aug-12 09:01N 38°42' W 009°08'3 5.9
2017-Aug-12 08:30N 38°39' W 009°06'3 5.6
2017-Aug-12 08:01N 38°41' W 009°08'3 5.5
2017-Aug-12 07:30N 38°39' W 009°06'3 5.5
2017-Aug-12 07:01N 38°41' W 009°08'3 5.2
2017-Aug-12 06:30N 38°39' W 009°06'1 1.1
2017-Aug-12 06:00N 38°40' W 009°06'0 0.9
2017-Aug-12 05:30N 38°40' W 009°07'0 0.6
2017-Aug-12 05:01N 38°40' W 009°07'2 4.1
2017-Aug-12 04:30N 38°42' W 009°08'4 7.6
2017-Aug-12 04:00N 38°39' W 009°05'0 0.0
2017-Aug-12 03:30N 38°39' W 009°05'0 0.0
2017-Aug-12 03:00N 38°39' W 009°05'0 0.0
2017-Aug-12 02:30N 38°39' W 009°05'0 0.0
2017-Aug-12 02:00N 38°39' W 009°05'0 0.0
2017-Aug-12 01:30N 38°39' W 009°05'4 8.3
2017-Aug-12 01:01N 38°42' W 009°08'4 8.3
2017-Aug-12 00:31N 38°39' W 009°05'4 8.3
2017-Aug-12 00:01N 38°42' W 009°08'4 8.3
2017-Aug-11 23:30N 38°39' W 009°05'4 8.4
2017-Aug-11 23:00N 38°42' W 009°08'4 8.3
2017-Aug-11 22:31N 38°39' W 009°05'3 6.6
2017-Aug-11 22:01N 38°41' W 009°08'2 4.8
2017-Aug-11 21:30N 38°39' W 009°06'3 5.1
2017-Aug-11 21:00N 38°42' W 009°08'3 5.7
2017-Aug-11 20:30N 38°39' W 009°06'1 1.5
2017-Aug-11 20:01N 38°39' W 009°05'0 0.0
2017-Aug-11 19:30N 38°39' W 009°05'4 8.4
2017-Aug-11 19:01N 38°42' W 009°08'4 8.3
2017-Aug-11 18:30N 38°39' W 009°05'4 7.5
2017-Aug-11 18:01N 38°42' W 009°08'2 4.3
2017-Aug-11 17:31N 38°40' W 009°07'1 1.8
2017-Aug-11 17:00N 38°40' W 009°06'3 6.2
2017-Aug-11 16:30N 38°42' W 009°08'4 8.2
2017-Aug-11 16:00N 38°39' W 009°05'4 8.5
2017-Aug-11 15:30N 38°42' W 009°08'4 8.3
2017-Aug-11 15:00N 38°39' W 009°05'3 6.5
2017-Aug-11 14:31N 38°41' W 009°08'0 0.3
2017-Aug-11 13:31N 38°42' W 009°08'3 5.8
2017-Aug-11 13:00N 38°39' W 009°06'3 6.2
2017-Aug-11 12:31N 38°42' W 009°08'3 6.2
2017-Aug-11 12:00N 38°39' W 009°06'3 6.4
2017-Aug-11 11:30N 38°42' W 009°08'3 6.6
2017-Aug-11 11:00N 38°39' W 009°05'3 6.3
2017-Aug-11 10:31N 38°42' W 009°08'3 6.5
2017-Aug-11 10:00N 38°39' W 009°05'0 0.8
2017-Aug-11 09:30N 38°39' W 009°05'0 0.2
2017-Aug-11 09:01N 38°39' W 009°05'4 7.0
2017-Aug-11 08:30N 38°42' W 009°08'4 7.1
2017-Aug-11 08:00N 38°39' W 009°05'4 8.3
2017-Aug-11 07:30N 38°42' W 009°08'4 7.0
2017-Aug-11 07:00N 38°39' W 009°06'1 2.2
2017-Aug-11 06:31N 38°40' W 009°07'2 3.7
2017-Aug-11 06:01N 38°39' W 009°05'0 0.2
2017-Aug-11 05:30N 38°39' W 009°05'0 0.0
2017-Aug-10 20:26N 38°39' W 009°05'2 5.4
2017-Aug-10 20:01N 38°40' W 009°08'0 0.7
2017-Aug-10 19:30N 38°40' W 009°08'3 5.2
2017-Aug-10 19:00N 38°39' W 009°05'2 4.6
2017-Aug-10 18:31N 38°40' W 009°07'1 2.3
2017-Aug-10 18:00N 38°40' W 009°06'3 6.4
2017-Aug-10 17:31N 38°42' W 009°08'4 8.3
2017-Aug-10 17:00N 38°39' W 009°05'4 7.5
2017-Aug-10 16:30N 38°42' W 009°08'2 4.6
2017-Aug-10 16:00N 38°40' W 009°07'1 1.6
2017-Aug-10 15:31N 38°41' W 009°08'3 5.3
2017-Aug-10 15:00N 38°39' W 009°05'0 0.0
2017-Aug-10 14:31N 38°39' W 009°05'3 6.7
2017-Aug-10 14:01N 38°41' W 009°08'2 4.9
2017-Aug-10 13:30N 38°39' W 009°06'2 4.8
2017-Aug-10 13:00N 38°41' W 009°08'3 5.4
2017-Aug-10 12:29N 38°39' W 009°05'1 1.0
2017-Aug-10 12:00N 38°39' W 009°05'0 0.0
2017-Aug-10 11:30N 38°39' W 009°05'0 0.0
2017-Aug-10 11:00N 38°39' W 009°05'0 0.0
2017-Aug-10 10:30N 38°39' W 009°05'0 0.0
2017-Aug-10 09:59N 38°39' W 009°05'3 7.2
2017-Aug-10 09:30N 38°42' W 009°08'3 5.8
2017-Aug-10 09:00N 38°39' W 009°06'1 1.4
2017-Aug-10 08:30N 38°39' W 009°05'4 7.6
2017-Aug-10 08:00N 38°42' W 009°08'2 4.3
2017-Aug-10 07:30N 38°40' W 009°07'1 2.2
2017-Aug-10 07:01N 38°39' W 009°06'4 7.1
2017-Aug-10 06:30N 38°42' W 009°08'4 8.4
2017-Aug-10 06:01N 38°39' W 009°05'4 7.9
2017-Aug-10 05:30N 38°42' W 009°08'4 7.4
2017-Aug-10 05:00N 38°39' W 009°05'3 5.7
2017-Aug-10 04:30N 38°41' W 009°08'3 6.3
2017-Aug-10 04:00N 38°39' W 009°05'0 0.0
2017-Aug-10 03:30N 38°39' W 009°05'0 0.0
2017-Aug-10 03:01N 38°39' W 009°05'0 0.0
2017-Aug-10 02:30N 38°39' W 009°05'0 0.0
2017-Aug-10 02:01N 38°39' W 009°05'0 0.0
2017-Aug-10 01:30N 38°39' W 009°05'4 8.3
2017-Aug-10 01:01N 38°42' W 009°08'4 8.3
2017-Aug-10 00:30N 38°39' W 009°05'4 8.3
2017-Aug-10 00:01N 38°42' W 009°08'4 8.3
2017-Aug-09 23:30N 38°39' W 009°05'4 8.4
2017-Aug-09 23:01N 38°42' W 009°08'4 8.3
2017-Aug-09 22:31N 38°39' W 009°05'4 7.1
2017-Aug-09 22:01N 38°42' W 009°08'3 5.8
2017-Aug-09 21:30N 38°39' W 009°06'3 5.5
2017-Aug-09 21:01N 38°42' W 009°08'3 5.5
2017-Aug-09 20:30N 38°39' W 009°06'1 1.6
2017-Aug-09 20:00N 38°39' W 009°05'0 0.0
2017-Aug-09 19:30N 38°39' W 009°05'4 8.3
2017-Aug-09 19:00N 38°42' W 009°08'4 8.4
2017-Aug-09 18:31N 38°39' W 009°05'4 7.2
2017-Aug-09 18:01N 38°42' W 009°08'2 3.5
2017-Aug-09 17:31N 38°40' W 009°07'1 2.3
2017-Aug-09 17:00N 38°39' W 009°06'3 6.9
2017-Aug-09 16:31N 38°42' W 009°08'4 8.3
2017-Aug-09 16:00N 38°39' W 009°05'4 8.4
2017-Aug-09 15:31N 38°42' W 009°08'4 8.3
2017-Aug-09 15:00N 38°39' W 009°05'4 7.2
2017-Aug-09 14:30N 38°42' W 009°08'3 6.0
2017-Aug-09 14:00N 38°39' W 009°06'3 5.9
2017-Aug-09 13:30N 38°42' W 009°08'3 5.8
2017-Aug-09 13:00N 38°39' W 009°06'3 5.7
2017-Aug-09 12:30N 38°42' W 009°08'3 6.1
2017-Aug-09 11:59N 38°39' W 009°05'3 6.7
2017-Aug-09 11:30N 38°42' W 009°08'3 5.4
2017-Aug-09 11:00N 38°39' W 009°06'3 5.9
2017-Aug-09 10:30N 38°42' W 009°08'3 6.3
2017-Aug-09 10:00N 38°39' W 009°06'1 1.3
2017-Aug-09 09:28N 38°39' W 009°05'0 0.0
2017-Aug-09 08:58N 38°39' W 009°05'3 5.5
2017-Aug-09 08:30N 38°40' W 009°08'3 5.2
2017-Aug-09 08:00N 38°39' W 009°05'4 8.3
2017-Aug-09 07:30N 38°42' W 009°08'3 6.8
2017-Aug-09 07:00N 38°39' W 009°06'1 2.4
2017-Aug-09 06:31N 38°40' W 009°07'2 3.9
2017-Aug-09 06:00N 38°39' W 009°05'0 0.0
2017-Aug-09 05:29N 38°39' W 009°05'0 0.0
2017-Aug-08 20:01N 38°39' W 009°05'0 0.0
2017-Aug-08 20:00N 38°39' W 009°05'4 8.3
2017-Aug-08 19:30N 38°42' W 009°08'4 8.3
2017-Aug-08 19:00N 38°39' W 009°05'4 8.3
2017-Aug-08 18:31N 38°42' W 009°08'4 8.3
2017-Aug-08 18:01N 38°39' W 009°05'4 7.5
2017-Aug-08 17:30N 38°42' W 009°08'2 3.9
2017-Aug-08 17:01N 38°40' W 009°07'1 1.8
2017-Aug-08 16:30N 38°40' W 009°06'3 6.2
2017-Aug-08 16:00N 38°42' W 009°08'4 8.4
2017-Aug-08 15:31N 38°39' W 009°05'4 7.1
2017-Aug-08 15:00N 38°42' W 009°08'3 6.2
2017-Aug-08 14:30N 38°39' W 009°06'1 1.1
2017-Aug-08 14:00N 38°39' W 009°05'0 0.0
2017-Aug-08 13:29N 38°39' W 009°05'0 0.0
2017-Aug-08 13:00N 38°39' W 009°05'0 0.0
2017-Aug-08 12:30N 38°39' W 009°05'0 0.0
2017-Aug-08 11:59N 38°39' W 009°05'0 0.0
2017-Aug-08 11:30N 38°39' W 009°05'0 0.0
2017-Aug-08 11:00N 38°39' W 009°05'0 0.0
2017-Aug-08 10:30N 38°39' W 009°05'3 6.8
2017-Aug-08 10:00N 38°41' W 009°08'3 5.5
2017-Aug-08 09:30N 38°39' W 009°06'0 1.0
2017-Aug-08 09:00N 38°39' W 009°05'4 8.1
2017-Aug-08 08:31N 38°42' W 009°08'3 5.2
2017-Aug-08 08:01N 38°40' W 009°07'1 1.3
2017-Aug-08 07:30N 38°40' W 009°06'3 6.0
2017-Aug-08 07:00N 38°42' W 009°08'4 8.4
2017-Aug-08 06:30N 38°39' W 009°05'4 8.4
2017-Aug-08 06:00N 38°42' W 009°08'4 8.3
2017-Aug-08 05:30N 38°39' W 009°05'4 7.3
2017-Aug-08 05:01N 38°42' W 009°08'4 7.4
2017-Aug-08 04:31N 38°39' W 009°05'0 0.0
2017-Aug-08 04:01N 38°39' W 009°05'0 0.0
2017-Aug-08 03:31N 38°39' W 009°05'0 0.0
2017-Aug-08 03:01N 38°39' W 009°05'0 0.0
2017-Aug-08 02:30N 38°39' W 009°05'0 0.0
2017-Aug-08 02:00N 38°39' W 009°05'0 0.0
2017-Aug-08 01:30N 38°39' W 009°05'0 0.0
2017-Aug-08 01:01N 38°39' W 009°05'0 0.0
2017-Aug-08 00:31N 38°39' W 009°05'0 0.0
2017-Aug-08 00:01N 38°39' W 009°05'0 0.0
2017-Aug-07 23:30N 38°39' W 009°05'0 0.0
2017-Aug-07 23:01N 38°39' W 009°05'4 8.4
2017-Aug-07 22:31N 38°42' W 009°08'4 8.3
2017-Aug-07 22:01N 38°39' W 009°05'3 6.8
2017-Aug-07 21:31N 38°41' W 009°08'3 6.6
2017-Aug-07 21:00N 38°39' W 009°05'4 7.2
2017-Aug-07 20:30N 38°42' W 009°08'  
Track history (hours):
 
Tides and Currents Weather Stations Pressure Air Temp Water Temp Dewpoint Dewpoint Depression Visibility Wind Speed Wind Dir Waves Ship Positions

Fernando Pessoa

Last reported at 2017-Aug-17 20:21 UTC. Time now 2017-Aug-18 03:07 UTC.
Position N 38°39' W 009°05'.

Length 49 m.

MMSI: 263701470.

Date/timePositionNaut miles runAvg speedWind from/ knotsBaromVisibWave heightAir tempDewpointWater temp
2017-Aug-17 20:21N 38°39' W 009°05'2 6.1
2017-Aug-17 20:01N 38°40' W 009°07'0 0.2
2017-Aug-17 19:31N 38°40' W 009°07'2 4.5
2017-Aug-17 19:00N 38°39' W 009°05'2 3.7
2017-Aug-17 18:30N 38°40' W 009°07'1 1.6
2017-Aug-17 18:00N 38°40' W 009°06'3 6.6
2017-Aug-17 17:30N 38°42' W 009°08'4 8.4
2017-Aug-17 17:01N 38°39' W 009°05'4 7.8
2017-Aug-17 16:30N 38°42' W 009°08'2 4.2
2017-Aug-17 16:00N 38°40' W 009°07'0 0.7
2017-Aug-17 15:30N 38°40' W 009°07'2 4.9
2017-Aug-17 15:01N 38°39' W 009°05'0 0.0
2017-Aug-17 14:31N 38°39' W 009°05'3 6.2
2017-Aug-17 14:01N 38°41' W 009°08'2 4.2
2017-Aug-17 13:30N 38°40' W 009°06'2 5.0
2017-Aug-17 13:01N 38°42' W 009°08'3 5.7
2017-Aug-17 12:30N 38°39' W 009°06'1 1.2
2017-Aug-17 12:00N 38°39' W 009°05'0 0.0
2017-Aug-17 11:30N 38°39' W 009°05'0 0.0
2017-Aug-17 11:00N 38°39' W 009°05'0 0.0
2017-Aug-17 10:30N 38°39' W 009°05'0 0.0
2017-Aug-17 10:00N 38°39' W 009°05'4 7.3
2017-Aug-17 09:30N 38°42' W 009°08'3 6.5
2017-Aug-17 09:00N 38°39' W 009°05'1 1.1
2017-Aug-17 08:30N 38°39' W 009°05'4 7.5
2017-Aug-17 08:01N 38°42' W 009°08'2 4.3
2017-Aug-17 07:30N 38°40' W 009°07'2 3.5
2017-Aug-17 07:00N 38°39' W 009°05'4 8.1
2017-Aug-17 06:31N 38°42' W 009°08'4 8.3
2017-Aug-17 06:00N 38°39' W 009°05'4 7.3
2017-Aug-17 05:30N 38°42' W 009°08'3 6.7
2017-Aug-17 05:00N 38°39' W 009°05'3 6.5
2017-Aug-17 04:30N 38°42' W 009°08'4 6.9
2017-Aug-17 04:00N 38°39' W 009°05'0 0.0
2017-Aug-17 03:30N 38°39' W 009°05'0 0.0
2017-Aug-17 03:00N 38°39' W 009°05'0 0.0
2017-Aug-17 02:30N 38°39' W 009°05'0 0.0
2017-Aug-17 02:00N 38°39' W 009°05'0 0.0
2017-Aug-17 01:31N 38°39' W 009°05'4 8.3
2017-Aug-17 01:00N 38°42' W 009°08'4 8.3
2017-Aug-17 00:30N 38°39' W 009°05'4 8.3
2017-Aug-17 00:00N 38°42' W 009°08'4 8.4
2017-Aug-16 23:31N 38°39' W 009°05'4 8.3
2017-Aug-16 23:00N 38°42' W 009°08'4 8.3
2017-Aug-16 22:30N 38°39' W 009°05'3 6.5
2017-Aug-16 22:01N 38°41' W 009°08'3 5.3
2017-Aug-16 21:30N 38°39' W 009°06'3 5.5
2017-Aug-16 21:00N 38°41' W 009°08'3 5.3
2017-Aug-16 20:30N 38°39' W 009°06'1 1.6
2017-Aug-16 20:00N 38°39' W 009°05'0 0.0
2017-Aug-16 19:31N 38°39' W 009°05'4 8.4
2017-Aug-16 19:01N 38°42' W 009°08'4 8.3
2017-Aug-16 18:30N 38°39' W 009°05'4 7.2
2017-Aug-16 18:01N 38°42' W 009°08'2 4.2
2017-Aug-16 17:31N 38°40' W 009°07'1 1.8
2017-Aug-16 17:01N 38°39' W 009°06'3 6.9
2017-Aug-16 16:31N 38°42' W 009°08'4 8.3
2017-Aug-16 16:01N 38°39' W 009°05'4 8.3
2017-Aug-16 15:31N 38°42' W 009°08'4 8.3
2017-Aug-16 15:00N 38°39' W 009°05'3 6.8
2017-Aug-16 14:30N 38°41' W 009°08'3 5.3
2017-Aug-16 14:00N 38°39' W 009°06'3 5.5
2017-Aug-16 13:30N 38°41' W 009°08'3 5.2
2017-Aug-16 13:00N 38°39' W 009°06'3 5.1
2017-Aug-16 12:30N 38°41' W 009°08'3 5.3
2017-Aug-16 12:00N 38°39' W 009°06'4 7.0
2017-Aug-16 11:30N 38°42' W 009°08'4 7.1
2017-Aug-16 11:00N 38°39' W 009°06'3 5.8
2017-Aug-16 10:30N 38°42' W 009°08'3 5.5
2017-Aug-16 10:00N 38°39' W 009°06'1 1.6
2017-Aug-16 09:31N 38°39' W 009°05'0 0.0
2017-Aug-16 09:00N 38°39' W 009°05'3 5.3
2017-Aug-16 08:31N 38°40' W 009°08'3 5.3
2017-Aug-16 08:01N 38°39' W 009°05'4 8.3
2017-Aug-16 07:31N 38°42' W 009°08'4 8.0
2017-Aug-16 07:00N 38°39' W 009°05'2 3.3
2017-Aug-16 06:31N 38°40' W 009°07'2 3.4
2017-Aug-16 06:00N 38°39' W 009°05'0 0.0
2017-Aug-14 16:32N 38°39' W 009°05'0 0.0
2017-Aug-14 16:30N 38°39' W 009°05'0 0.0
2017-Aug-14 12:00N 38°39' W 009°05'3 7.2
2017-Aug-14 11:31N 38°42' W 009°08'3 5.8
2017-Aug-14 11:01N 38°39' W 009°06'3 5.4
2017-Aug-14 10:31N 38°41' W 009°08'3 5.4
2017-Aug-14 10:00N 38°39' W 009°06'1 1.3
2017-Aug-14 09:30N 38°39' W 009°05'0 0.0
2017-Aug-14 09:00N 38°39' W 009°05'3 5.3
2017-Aug-14 08:31N 38°41' W 009°08'3 5.4
2017-Aug-14 08:00N 38°39' W 009°05'4 8.3
2017-Aug-14 07:31N 38°42' W 009°08'4 8.3
2017-Aug-14 07:01N 38°39' W 009°05'2 4.3
2017-Aug-14 06:30N 38°40' W 009°07'2 4.6
2017-Aug-14 06:00N 38°39' W 009°05'0 0.0
2017-Aug-13 10:25N 38°39' W 009°05'3 8.3
2017-Aug-13 10:01N 38°41' W 009°08'3 5.8
2017-Aug-13 09:30N 38°39' W 009°06'3 6.7
2017-Aug-13 09:01N 38°42' W 009°08'3 6.8
2017-Aug-13 08:31N 38°39' W 009°05'3 6.3
2017-Aug-13 08:01N 38°42' W 009°08'3 5.9
2017-Aug-13 07:30N 38°39' W 009°06'3 5.8
2017-Aug-13 07:00N 38°42' W 009°08'3 5.5
2017-Aug-13 06:31N 38°39' W 009°06'0 0.1
2017-Aug-13 06:00N 38°39' W 009°06'1 2.1
2017-Aug-13 05:31N 38°40' W 009°07'1 2.1
2017-Aug-13 05:00N 38°39' W 009°06'2 4.3
2017-Aug-13 04:30N 38°41' W 009°08'3 6.0
2017-Aug-13 04:01N 38°39' W 009°05'0 0.0
2017-Aug-13 03:31N 38°39' W 009°05'0 0.0
2017-Aug-13 03:01N 38°39' W 009°05'0 0.0
2017-Aug-13 02:31N 38°39' W 009°05'0 0.0
2017-Aug-13 02:01N 38°39' W 009°05'0 0.0
2017-Aug-13 01:31N 38°39' W 009°05'4 8.3
2017-Aug-13 01:00N 38°42' W 009°08'4 8.3
2017-Aug-13 00:31N 38°39' W 009°05'4 8.3
2017-Aug-13 00:01N 38°42' W 009°08'4 8.3
2017-Aug-12 23:31N 38°39' W 009°05'4 8.3
2017-Aug-12 23:01N 38°42' W 009°08'4 8.3
2017-Aug-12 22:30N 38°39' W 009°05'3 6.6
2017-Aug-12 22:01N 38°41' W 009°08'3 5.2
2017-Aug-12 21:31N 38°39' W 009°06'3 5.3
2017-Aug-12 21:01N 38°41' W 009°08'3 5.5
2017-Aug-12 20:31N 38°39' W 009°06'3 5.2
2017-Aug-12 20:01N 38°41' W 009°08'2 4.5
2017-Aug-12 19:30N 38°40' W 009°06'1 2.0
2017-Aug-12 19:01N 38°39' W 009°05'3 6.6
2017-Aug-12 18:30N 38°41' W 009°08'3 5.3
2017-Aug-12 18:00N 38°39' W 009°06'3 5.9
2017-Aug-12 17:30N 38°42' W 009°08'3 5.9
2017-Aug-12 17:00N 38°39' W 009°06'3 5.3
2017-Aug-12 16:30N 38°41' W 009°08'2 4.7
2017-Aug-12 16:01N 38°40' W 009°06'2 4.7
2017-Aug-12 15:31N 38°41' W 009°08'3 5.7
2017-Aug-12 15:00N 38°39' W 009°05'3 6.0
2017-Aug-12 14:30N 38°41' W 009°08'3 6.7
2017-Aug-12 14:01N 38°39' W 009°05'0 0.0
2017-Aug-12 13:30N 38°39' W 009°05'0 0.0
2017-Aug-12 13:00N 38°39' W 009°05'0 0.0
2017-Aug-12 12:31N 38°39' W 009°05'3 6.4
2017-Aug-12 12:01N 38°41' W 009°08'3 5.4
2017-Aug-12 11:30N 38°39' W 009°05'3 6.5
2017-Aug-12 11:00N 38°42' W 009°08'3 6.2
2017-Aug-12 10:30N 38°39' W 009°06'3 6.0
2017-Aug-12 10:00N 38°42' W 009°08'3 6.0
2017-Aug-12 09:30N 38°39' W 009°06'3 6.1
2017-Aug-12 09:01N 38°42' W 009°08'3 5.9
2017-Aug-12 08:30N 38°39' W 009°06'3 5.6
2017-Aug-12 08:01N 38°41' W 009°08'3 5.5
2017-Aug-12 07:30N 38°39' W 009°06'3 5.5
2017-Aug-12 07:01N 38°41' W 009°08'3 5.2
2017-Aug-12 06:30N 38°39' W 009°06'1 1.1
2017-Aug-12 06:00N 38°40' W 009°06'0 0.9
2017-Aug-12 05:30N 38°40' W 009°07'0 0.6
2017-Aug-12 05:01N 38°40' W 009°07'2 4.1
2017-Aug-12 04:30N 38°42' W 009°08'4 7.6
2017-Aug-12 04:00N 38°39' W 009°05'0 0.0
2017-Aug-12 03:30N 38°39' W 009°05'0 0.0
2017-Aug-12 03:00N 38°39' W 009°05'0 0.0
2017-Aug-12 02:30N 38°39' W 009°05'0 0.0
2017-Aug-12 02:00N 38°39' W 009°05'0 0.0
2017-Aug-12 01:30N 38°39' W 009°05'4 8.3
2017-Aug-12 01:01N 38°42' W 009°08'4 8.3
2017-Aug-12 00:31N 38°39' W 009°05'4 8.3
2017-Aug-12 00:01N 38°42' W 009°08'4 8.3
2017-Aug-11 23:30N 38°39' W 009°05'4 8.4
2017-Aug-11 23:00N 38°42' W 009°08'4 8.3
2017-Aug-11 22:31N 38°39' W 009°05'3 6.6
2017-Aug-11 22:01N 38°41' W 009°08'2 4.8
2017-Aug-11 21:30N 38°39' W 009°06'3 5.1
2017-Aug-11 21:00N 38°42' W 009°08'3 5.7
2017-Aug-11 20:30N 38°39' W 009°06'1 1.5
2017-Aug-11 20:01N 38°39' W 009°05'0 0.0
2017-Aug-11 19:30N 38°39' W 009°05'4 8.4
2017-Aug-11 19:01N 38°42' W 009°08'4 8.3
2017-Aug-11 18:30N 38°39' W 009°05'4 7.5
2017-Aug-11 18:01N 38°42' W 009°08'2 4.3
2017-Aug-11 17:31N 38°40' W 009°07'1 1.8
2017-Aug-11 17:00N 38°40' W 009°06'3 6.2
2017-Aug-11 16:30N 38°42' W 009°08'4 8.2
2017-Aug-11 16:00N 38°39' W 009°05'4 8.5
2017-Aug-11 15:30N 38°42' W 009°08'4 8.3
2017-Aug-11 15:00N 38°39' W 009°05'3 6.5
2017-Aug-11 14:31N 38°41' W 009°08'0 0.3
2017-Aug-11 13:31N 38°42' W 009°08'3 5.8
2017-Aug-11 13:00N 38°39' W 009°06'3 6.2
2017-Aug-11 12:31N 38°42' W 009°08'3 6.2
2017-Aug-11 12:00N 38°39' W 009°06'3 6.4
2017-Aug-11 11:30N 38°42' W 009°08'3 6.6
2017-Aug-11 11:00N 38°39' W 009°05'3 6.3
2017-Aug-11 10:31N 38°42' W 009°08'3 6.5
2017-Aug-11 10:00N 38°39' W 009°05'0 0.8
2017-Aug-11 09:30N 38°39' W 009°05'0 0.2
2017-Aug-11 09:01N 38°39' W 009°05'4 7.0
2017-Aug-11 08:30N 38°42' W 009°08'4 7.1
2017-Aug-11 08:00N 38°39' W 009°05'4 8.3
2017-Aug-11 07:30N 38°42' W 009°08'4 7.0
2017-Aug-11 07:00N 38°39' W 009°06'1 2.2
2017-Aug-11 06:31N 38°40' W 009°07'2 3.7
2017-Aug-11 06:01N 38°39' W 009°05'0 0.2
2017-Aug-11 05:30N 38°39' W 009°05'0 0.0
2017-Aug-10 20:26N 38°39' W 009°05'2 5.4
2017-Aug-10 20:01N 38°40' W 009°08'0 0.7
2017-Aug-10 19:30N 38°40' W 009°08'3 5.2
2017-Aug-10 19:00N 38°39' W 009°05'2 4.6
2017-Aug-10 18:31N 38°40' W 009°07'1 2.3
2017-Aug-10 18:00N 38°40' W 009°06'3 6.4
2017-Aug-10 17:31N 38°42' W 009°08'4 8.3
2017-Aug-10 17:00N 38°39' W 009°05'4 7.5
2017-Aug-10 16:30N 38°42' W 009°08'2 4.6
2017-Aug-10 16:00N 38°40' W 009°07'1 1.6
2017-Aug-10 15:31N 38°41' W 009°08'3 5.3
2017-Aug-10 15:00N 38°39' W 009°05'0 0.0
2017-Aug-10 14:31N 38°39' W 009°05'3 6.7
2017-Aug-10 14:01N 38°41' W 009°08'2 4.9
2017-Aug-10 13:30N 38°39' W 009°06'2 4.8
2017-Aug-10 13:00N 38°41' W 009°08'3 5.4
2017-Aug-10 12:29N 38°39' W 009°05'1 1.0
2017-Aug-10 12:00N 38°39' W 009°05'0 0.0
2017-Aug-10 11:30N 38°39' W 009°05'0 0.0
2017-Aug-10 11:00N 38°39' W 009°05'0 0.0
2017-Aug-10 10:30N 38°39' W 009°05'0 0.0
2017-Aug-10 09:59N 38°39' W 009°05'3 7.2
2017-Aug-10 09:30N 38°42' W 009°08'3 5.8
2017-Aug-10 09:00N 38°39' W 009°06'1 1.4
2017-Aug-10 08:30N 38°39' W 009°05'4 7.6
2017-Aug-10 08:00N 38°42' W 009°08'2 4.3
2017-Aug-10 07:30N 38°40' W 009°07'1 2.2
2017-Aug-10 07:01N 38°39' W 009°06'4 7.1
2017-Aug-10 06:30N 38°42' W 009°08'4 8.4
2017-Aug-10 06:01N 38°39' W 009°05'4 7.9
2017-Aug-10 05:30N 38°42' W 009°08'4 7.4
2017-Aug-10 05:00N 38°39' W 009°05'3 5.7
2017-Aug-10 04:30N 38°41' W 009°08'3 6.3
2017-Aug-10 04:00N 38°39' W 009°05'0 0.0
2017-Aug-10 03:30N 38°39' W 009°05'0 0.0
2017-Aug-10 03:01N 38°39' W 009°05'0 0.0
2017-Aug-10 02:30N 38°39' W 009°05'0 0.0
2017-Aug-10 02:01N 38°39' W 009°05'0 0.0
2017-Aug-10 01:30N 38°39' W 009°05'4 8.3
2017-Aug-10 01:01N 38°42' W 009°08'4 8.3
2017-Aug-10 00:30N 38°39' W 009°05'4 8.3
2017-Aug-10 00:01N 38°42' W 009°08'4 8.3
2017-Aug-09 23:30N 38°39' W 009°05'4 8.4
2017-Aug-09 23:01N 38°42' W 009°08'4 8.3
2017-Aug-09 22:31N 38°39' W 009°05'4 7.1
2017-Aug-09 22:01N 38°42' W 009°08'3 5.8
2017-Aug-09 21:30N 38°39' W 009°06'3 5.5
2017-Aug-09 21:01N 38°42' W 009°08'3 5.5
2017-Aug-09 20:30N 38°39' W 009°06'1 1.6
2017-Aug-09 20:00N 38°39' W 009°05'0 0.0
2017-Aug-09 19:30N 38°39' W 009°05'4 8.3
2017-Aug-09 19:00N 38°42' W 009°08'4 8.4
2017-Aug-09 18:31N 38°39' W 009°05'4 7.2
2017-Aug-09 18:01N 38°42' W 009°08'2 3.5
2017-Aug-09 17:31N 38°40' W 009°07'1 2.3
2017-Aug-09 17:00N 38°39' W 009°06'3 6.9
2017-Aug-09 16:31N 38°42' W 009°08'4 8.3
2017-Aug-09 16:00N 38°39' W 009°05'4 8.4
2017-Aug-09 15:31N 38°42' W 009°08'4 8.3
2017-Aug-09 15:00N 38°39' W 009°05'4 7.2
2017-Aug-09 14:30N 38°42' W 009°08'3 6.0
2017-Aug-09 14:00N 38°39' W 009°06'3 5.9
2017-Aug-09 13:30N 38°42' W 009°08'3 5.8
2017-Aug-09 13:00N 38°39' W 009°06'3 5.7
2017-Aug-09 12:30N 38°42' W 009°08'3 6.1
2017-Aug-09 11:59N 38°39' W 009°05'3 6.7
2017-Aug-09 11:30N 38°42' W 009°08'3 5.4
2017-Aug-09 11:00N 38°39' W 009°06'3 5.9
2017-Aug-09 10:30N 38°42' W 009°08'3 6.3
2017-Aug-09 10:00N 38°39' W 009°06'1 1.3
2017-Aug-09 09:28N 38°39' W 009°05'0 0.0
2017-Aug-09 08:58N 38°39' W 009°05'3 5.5
2017-Aug-09 08:30N 38°40' W 009°08'3 5.2
2017-Aug-09 08:00N 38°39' W 009°05'4 8.3
2017-Aug-09 07:30N 38°42' W 009°08'3 6.8
2017-Aug-09 07:00N 38°39' W 009°06'1 2.4
2017-Aug-09 06:31N 38°40' W 009°07'2 3.9
2017-Aug-09 06:00N 38°39' W 009°05'0 0.0
2017-Aug-09 05:29N 38°39' W 009°05'0 0.0
2017-Aug-08 20:01N 38°39' W 009°05'0 0.0
2017-Aug-08 20:00N 38°39' W 009°05'4 8.3
2017-Aug-08 19:30N 38°42' W 009°08'4 8.3
2017-Aug-08 19:00N 38°39' W 009°05'4 8.3
2017-Aug-08 18:31N 38°42' W 009°08'4 8.3
2017-Aug-08 18:01N 38°39' W 009°05'4 7.5
2017-Aug-08 17:30N 38°42' W 009°08'2 3.9
2017-Aug-08 17:01N 38°40' W 009°07'1 1.8
2017-Aug-08 16:30N 38°40' W 009°06'3 6.2
2017-Aug-08 16:00N 38°42' W 009°08'4 8.4
2017-Aug-08 15:31N 38°39' W 009°05'4 7.1
2017-Aug-08 15:00N 38°42' W 009°08'3 6.2
2017-Aug-08 14:30N 38°39' W 009°06'1 1.1
2017-Aug-08 14:00N 38°39' W 009°05'0 0.0
2017-Aug-08 13:29N 38°39' W 009°05'0 0.0
2017-Aug-08 13:00N 38°39' W 009°05'0 0.0
2017-Aug-08 12:30N 38°39' W 009°05'0 0.0
2017-Aug-08 11:59N 38°39' W 009°05'0 0.0
2017-Aug-08 11:30N 38°39' W 009°05'0 0.0
2017-Aug-08 11:00N 38°39' W 009°05'0 0.0
2017-Aug-08 10:30N 38°39' W 009°05'3 6.8
2017-Aug-08 10:00N 38°41' W 009°08'3 5.5
2017-Aug-08 09:30N 38°39' W 009°06'0 1.0
2017-Aug-08 09:00N 38°39' W 009°05'4 8.1
2017-Aug-08 08:31N 38°42' W 009°08'3 5.2
2017-Aug-08 08:01N 38°40' W 009°07'1 1.3
2017-Aug-08 07:30N 38°40' W 009°06'3 6.0
2017-Aug-08 07:00N 38°42' W 009°08'4 8.4
2017-Aug-08 06:30N 38°39' W 009°05'4 8.4
2017-Aug-08 06:00N 38°42' W 009°08'4 8.3
2017-Aug-08 05:30N 38°39' W 009°05'4 7.3
2017-Aug-08 05:01N 38°42' W 009°08'4 7.4
2017-Aug-08 04:31N 38°39' W 009°05'0 0.0
2017-Aug-08 04:01N 38°39' W 009°05'0 0.0
2017-Aug-08 03:31N 38°39' W 009°05'0 0.0
2017-Aug-08 03:01N 38°39' W 009°05'0 0.0
2017-Aug-08 02:30N 38°39' W 009°05'0 0.0
2017-Aug-08 02:00N 38°39' W 009°05'0 0.0
2017-Aug-08 01:30N 38°39' W 009°05'0 0.0
2017-Aug-08 01:01N 38°39' W 009°05'0 0.0
2017-Aug-08 00:31N 38°39' W 009°05'0 0.0
2017-Aug-08 00:01N 38°39' W 009°05'0 0.0
2017-Aug-07 23:30N 38°39' W 009°05'0 0.0
2017-Aug-07 23:01N 38°39' W 009°05'4 8.4
2017-Aug-07 22:31N 38°42' W 009°08'4 8.3
2017-Aug-07 22:01N 38°39' W 009°05'3 6.8
2017-Aug-07 21:31N 38°41' W 009°08'3 6.6
2017-Aug-07 21:00N 38°39' W 009°05'4 7.2
2017-Aug-07 20:30N 38°42' W 009°08'  

Dump ship's entire track history